Private Wetterstation Sandau
Wetterdaten: Mittwoch, 01.02.2012
Datum Zeit Temp. A. Feuchte A. Luftdruck Regen Wind Richtung Richtung Taupunkt Windchill
01.02.2012 00:02 -7,9 C 68 % 1036,6 hPa 0,0 l/m 11,2 km/h (2 Bft) O 90 -12,7 C -13,1 C
01.02.2012 00:07 -7,9 C 68 % 1036,7 hPa 0,0 l/m 6,8 km/h (2 Bft) O 90 -12,7 C -11,5 C
01.02.2012 00:12 -7,9 C 68 % 1036,7 hPa 0,0 l/m 13,3 km/h (3 Bft) O 90 -12,7 C -13,7 C
01.02.2012 00:17 -8,0 C 68 % 1036,7 hPa 0,0 l/m 6,5 km/h (2 Bft) O 90 -12,8 C -11,5 C
01.02.2012 00:22 -8,1 C 68 % 1036,6 hPa 0,0 l/m 8,6 km/h (2 Bft) O 90 -12,9 C -12,5 C
01.02.2012 00:27 -8,1 C 68 % 1036,7 hPa 0,0 l/m 9,4 km/h (2 Bft) O 90 -12,9 C -12,8 C
01.02.2012 00:32 -8,1 C 68 % 1036,7 hPa 0,0 l/m 18,0 km/h (3 Bft) O 90 -12,9 C -15,1 C
01.02.2012 00:37 -8,1 C 68 % 1036,7 hPa 0,0 l/m 9,0 km/h (2 Bft) O 90 -12,9 C -12,6 C
01.02.2012 00:42 -8,1 C 68 % 1036,6 hPa 0,0 l/m 8,3 km/h (2 Bft) O 90 -12,9 C -12,4 C
01.02.2012 00:47 -8,2 C 68 % 1036,7 hPa 0,0 l/m 6,5 km/h (2 Bft) O 90 -13,0 C -11,7 C
01.02.2012 00:52 -8,2 C 68 % 1036,7 hPa 0,0 l/m 9,7 km/h (2 Bft) O 90 -13,0 C -13,0 C
01.02.2012 00:57 -8,2 C 68 % 1036,8 hPa 0,0 l/m 7,2 km/h (2 Bft) O 90 -13,0 C -12,0 C
01.02.2012 01:02 -8,2 C 68 % 1036,8 hPa 0,0 l/m 13,7 km/h (3 Bft) O 90 -13,0 C -14,2 C
01.02.2012 01:07 -8,3 C 68 % 1036,8 hPa 0,0 l/m 7,2 km/h (2 Bft) O 90 -13,1 C -12,1 C
01.02.2012 01:12 -8,4 C 68 % 1036,8 hPa 0,0 l/m 9,4 km/h (2 Bft) O 90 -13,2 C -13,1 C
01.02.2012 01:17 -8,4 C 68 % 1036,9 hPa 0,0 l/m 13,3 km/h (3 Bft) O 90 -13,2 C -14,3 C
01.02.2012 01:22 -8,4 C 68 % 1036,9 hPa 0,0 l/m 6,5 km/h (2 Bft) O 90 -13,2 C -11,9 C
01.02.2012 01:27 -8,4 C 68 % 1036,9 hPa 0,0 l/m 7,9 km/h (2 Bft) O 90 -13,2 C -12,6 C
01.02.2012 01:32 -8,4 C 68 % 1037,0 hPa 0,0 l/m 6,5 km/h (2 Bft) O 90 -13,2 C -11,9 C
01.02.2012 01:37 -8,5 C 68 % 1037,0 hPa 0,0 l/m 7,9 km/h (2 Bft) O 90 -13,3 C -12,7 C
01.02.2012 01:42 -8,6 C 68 % 1037,1 hPa 0,0 l/m 3,6 km/h (1 Bft) O 90 -13,4 C -8,6 C
01.02.2012 01:47 -8,6 C 69 % 1037,1 hPa 0,0 l/m 6,1 km/h (2 Bft) O 90 -13,2 C -12,0 C
01.02.2012 01:52 -8,7 C 69 % 1037,2 hPa 0,0 l/m 6,8 km/h (2 Bft) O 90 -13,3 C -12,4 C
01.02.2012 01:57 -8,7 C 69 % 1037,1 hPa 0,0 l/m 3,2 km/h (1 Bft) O 90 -13,3 C -8,7 C
01.02.2012 02:02 -8,7 C 69 % 1037,2 hPa 0,0 l/m 10,8 km/h (2 Bft) O 90 -13,3 C -14,0 C
01.02.2012 02:07 -8,7 C 69 % 1037,1 hPa 0,0 l/m 6,5 km/h (2 Bft) O 90 -13,3 C -12,3 C
01.02.2012 02:12 -8,8 C 69 % 1037,1 hPa 0,0 l/m 7,6 km/h (2 Bft) O 90 -13,4 C -12,9 C
01.02.2012 02:17 -8,8 C 69 % 1037,2 hPa 0,0 l/m 10,8 km/h (2 Bft) O 90 -13,4 C -14,1 C
01.02.2012 02:22 -8,8 C 69 % 1037,1 hPa 0,0 l/m 7,6 km/h (2 Bft) O 90 -13,4 C -12,9 C
01.02.2012 02:27 -8,8 C 69 % 1037,0 hPa 0,0 l/m 7,6 km/h (2 Bft) O 90 -13,4 C -12,9 C
01.02.2012 02:32 -8,9 C 69 % 1037,0 hPa 0,0 l/m 11,2 km/h (2 Bft) O 90 -13,5 C -14,3 C
01.02.2012 02:37 -8,9 C 69 % 1037,1 hPa 0,0 l/m 5,0 km/h (1 Bft) O 90 -13,5 C -11,7 C
01.02.2012 02:42 -8,9 C 69 % 1037,2 hPa 0,0 l/m 7,6 km/h (2 Bft) O 90 -13,5 C -13,0 C
01.02.2012 02:47 -8,9 C 68 % 1037,2 hPa 0,0 l/m 7,6 km/h (2 Bft) O 90 -13,7 C -13,0 C
01.02.2012 02:52 -8,9 C 68 % 1037,2 hPa 0,0 l/m 14,8 km/h (3 Bft) O 90 -13,7 C -15,3 C
01.02.2012 02:57 -8,9 C 68 % 1037,3 hPa 0,0 l/m 6,1 km/h (2 Bft) O 90 -13,7 C -12,3 C
01.02.2012 03:02 -9,0 C 68 % 1037,2 hPa 0,0 l/m 6,8 km/h (2 Bft) O 90 -13,8 C -12,8 C
01.02.2012 03:07 -9,0 C 68 % 1037,2 hPa 0,0 l/m 4,0 km/h (1 Bft) O 90 -13,8 C -9,0 C
01.02.2012 03:12 -9,1 C 68 % 1037,1 hPa 0,0 l/m 6,5 km/h (2 Bft) O 90 -13,9 C -12,7 C
01.02.2012 03:17 -9,1 C 68 % 1037,2 hPa 0,0 l/m 9,7 km/h (2 Bft) O 90 -13,9 C -14,1 C
01.02.2012 03:22 -9,1 C 68 % 1037,3 hPa 0,0 l/m 4,0 km/h (1 Bft) O 90 -13,9 C -9,1 C
01.02.2012 03:27 -9,1 C 68 % 1037,2 hPa 0,0 l/m 11,9 km/h (2 Bft) O 90 -13,9 C -14,8 C
01.02.2012 03:32 -9,2 C 68 % 1037,3 hPa 0,0 l/m 9,7 km/h (2 Bft) O 90 -14,0 C -14,2 C
01.02.2012 03:37 -9,2 C 68 % 1037,3 hPa 0,0 l/m 5,4 km/h (1 Bft) O 90 -14,0 C -12,3 C
01.02.2012 03:42 -9,3 C 68 % 1037,3 hPa 0,0 l/m 6,5 km/h (2 Bft) O 90 -14,1 C -13,0 C
01.02.2012 03:47 -9,3 C 68 % 1037,3 hPa 0,0 l/m 3,6 km/h (1 Bft) O 90 -14,1 C -9,3 C
01.02.2012 03:52 -9,4 C 68 % 1037,3 hPa 0,0 l/m 6,1 km/h (2 Bft) O 90 -14,2 C -12,9 C
01.02.2012 03:57 -9,4 C 68 % 1037,3 hPa 0,0 l/m 3,2 km/h (1 Bft) O 90 -14,2 C -9,4 C
01.02.2012 04:02 -9,4 C 68 % 1037,3 hPa 0,0 l/m 7,9 km/h (2 Bft) O 90 -14,2 C -13,7 C
01.02.2012 04:07 -9,5 C 67 % 1037,2 hPa 0,0 l/m 4,7 km/h (1 Bft) O 90 -14,5 C -12,2 C
01.02.2012 04:12 -9,5 C 67 % 1037,2 hPa 0,0 l/m 5,0 km/h (1 Bft) O 90 -14,5 C -12,4 C
01.02.2012 04:17 -9,5 C 67 % 1037,3 hPa 0,0 l/m 11,9 km/h (2 Bft) O 90 -14,5 C -15,3 C
01.02.2012 04:22 -9,6 C 67 % 1037,2 hPa 0,0 l/m 6,8 km/h (2 Bft) O 90 -14,6 C -13,5 C
01.02.2012 04:27 -9,6 C 67 % 1037,3 hPa 0,0 l/m 4,3 km/h (1 Bft) O 90 -14,6 C -9,6 C
01.02.2012 04:32 -9,6 C 66 % 1037,3 hPa 0,0 l/m 12,6 km/h (3 Bft) O 90 -14,7 C -15,6 C
01.02.2012 04:37 -9,6 C 66 % 1037,2 hPa 0,0 l/m 5,0 km/h (1 Bft) O 90 -14,7 C -12,5 C
01.02.2012 04:42 -9,6 C 66 % 1037,3 hPa 0,0 l/m 11,2 km/h (2 Bft) O 90 -14,7 C -15,2 C
01.02.2012 04:47 -9,7 C 66 % 1037,3 hPa 0,0 l/m 7,2 km/h (2 Bft) O 90 -14,8 C -13,8 C
01.02.2012 04:52 -9,7 C 66 % 1037,3 hPa 0,0 l/m 14,8 km/h (3 Bft) O 90 -14,8 C -16,3 C
01.02.2012 04:57 -9,7 C 66 % 1037,3 hPa 0,0 l/m 6,8 km/h (2 Bft) O 90 -14,8 C -13,6 C
01.02.2012 05:02 -9,8 C 66 % 1037,4 hPa 0,0 l/m 6,8 km/h (2 Bft) O 90 -14,9 C -13,7 C
01.02.2012 05:07 -9,8 C 66 % 1037,3 hPa 0,0 l/m 8,3 km/h (2 Bft) O 90 -14,9 C -14,4 C
01.02.2012 05:12 -9,9 C 66 % 1037,3 hPa 0,0 l/m 2,2 km/h (1 Bft) O 90 -15,0 C -9,9 C
01.02.2012 05:17 -9,9 C 65 % 1037,4 hPa 0,0 l/m 4,7 km/h (1 Bft) O 90 -15,2 C -12,6 C
01.02.2012 05:22 -9,9 C 65 % 1037,3 hPa 0,0 l/m 4,7 km/h (1 Bft) O 90 -15,2 C -12,6 C
01.02.2012 05:27 -9,9 C 65 % 1037,4 hPa 0,0 l/m 8,6 km/h (2 Bft) O 90 -15,2 C -14,6 C
01.02.2012 05:32 -9,9 C 65 % 1037,4 hPa 0,0 l/m 5,8 km/h (2 Bft) O 90 -15,2 C -13,3 C
01.02.2012 05:37 -10,1 C 65 % 1037,4 hPa 0,0 l/m 13,3 km/h (3 Bft) O 90 -15,4 C -16,4 C
01.02.2012 05:42 -10,1 C 65 % 1037,5 hPa 0,0 l/m 4,7 km/h (1 Bft) O 90 -15,4 C -12,9 C
01.02.2012 05:47 -10,1 C 65 % 1037,6 hPa 0,0 l/m 10,1 km/h (2 Bft) O 90 -15,4 C -15,4 C
01.02.2012 05:52 -10,1 C 65 % 1037,6 hPa 0,0 l/m 4,3 km/h (1 Bft) O 90 -15,4 C -10,1 C
01.02.2012 05:57 -10,2 C 65 % 1037,7 hPa 0,0 l/m 5,0 km/h (1 Bft) O 90 -15,5 C -13,2 C
01.02.2012 06:02 -10,2 C 65 % 1037,7 hPa 0,0 l/m 10,8 km/h (2 Bft) O 90 -15,5 C -15,8 C
01.02.2012 06:07 -10,2 C 64 % 1037,6 hPa 0,0 l/m 5,0 km/h (1 Bft) O 90 -15,7 C -13,2 C
01.02.2012 06:12 -10,3 C 65 % 1037,6 hPa 0,0 l/m 5,0 km/h (1 Bft) O 90 -15,6 C -13,3 C
01.02.2012 06:17 -10,4 C 65 % 1037,7 hPa 0,0 l/m 3,6 km/h (1 Bft) O 90 -15,7 C -10,4 C
01.02.2012 06:22 -10,4 C 65 % 1037,5 hPa 0,0 l/m 0,0 km/h (0 Bft) O 90 -15,7 C -10,4 C
01.02.2012 06:27 -10,5 C 65 % 1037,4 hPa 0,0 l/m 2,5 km/h (1 Bft) O 90 -15,8 C -10,5 C
01.02.2012 06:32 -10,5 C 65 % 1037,7 hPa 0,0 l/m 4,3 km/h (1 Bft) O 90 -15,8 C -10,5 C
01.02.2012 06:37 -10,5 C 65 % 1037,5 hPa 0,0 l/m 2,2 km/h (1 Bft) O 90 -15,8 C -10,5 C
01.02.2012 06:42 -10,6 C 65 % 1037,7 hPa 0,0 l/m 0,0 km/h (0 Bft) O 90 -15,9 C -10,6 C
01.02.2012 06:47 -10,6 C 65 % 1037,9 hPa 0,0 l/m 4,7 km/h (1 Bft) O 90 -15,9 C -13,4 C
01.02.2012 06:52 -10,6 C 65 % 1037,8 hPa 0,0 l/m 4,0 km/h (1 Bft) O 90 -15,9 C -10,6 C
01.02.2012 06:57 -10,7 C 65 % 1037,8 hPa 0,0 l/m 4,7 km/h (1 Bft) O 90 -16,0 C -13,5 C
01.02.2012 07:02 -10,7 C 65 % 1037,7 hPa 0,0 l/m 6,1 km/h (2 Bft) O 90 -16,0 C -14,4 C
01.02.2012 07:07 -10,7 C 65 % 1037,8 hPa 0,0 l/m 6,5 km/h (2 Bft) O 90 -16,0 C -14,6 C
01.02.2012 07:12 -10,7 C 65 % 1037,8 hPa 0,0 l/m 5,8 km/h (2 Bft) O 90 -16,0 C -14,2 C
01.02.2012 07:17 -10,7 C 65 % 1037,8 hPa 0,0 l/m 5,0 km/h (1 Bft) O 90 -16,0 C -13,7 C
01.02.2012 07:22 -10,7 C 65 % 1037,8 hPa 0,0 l/m 7,6 km/h (2 Bft) O 90 -16,0 C -15,1 C
01.02.2012 07:27 -10,7 C 65 % 1038,0 hPa 0,0 l/m 3,2 km/h (1 Bft) O 90 -16,0 C -10,7 C
01.02.2012 07:32 -10,7 C 65 % 1038,0 hPa 0,0 l/m 1,8 km/h (1 Bft) O 90 -16,0 C -10,7 C
01.02.2012 07:37 -10,7 C 65 % 1038,2 hPa 0,0 l/m 5,8 km/h (2 Bft) O 90 -16,0 C -14,2 C
01.02.2012 07:42 -10,7 C 65 % 1038,2 hPa 0,0 l/m 10,4 km/h (2 Bft) O 90 -16,0 C -16,2 C
01.02.2012 07:47 -10,7 C 65 % 1038,1 hPa 0,0 l/m 3,6 km/h (1 Bft) O 90 -16,0 C -10,7 C
01.02.2012 07:52 -10,7 C 65 % 1038,0 hPa 0,0 l/m 4,3 km/h (1 Bft) O 90 -16,0 C -10,7 C
01.02.2012 07:57 -10,7 C 64 % 1038,1 hPa 0,0 l/m 9,7 km/h (2 Bft) O 90 -16,2 C -16,0 C
01.02.2012 08:02 -10,7 C 64 % 1038,0 hPa 0,0 l/m 3,2 km/h (1 Bft) O 90 -16,2 C -10,7 C
01.02.2012 08:07 -10,7 C 64 % 1038,1 hPa 0,0 l/m 5,8 km/h (2 Bft) O 90 -16,2 C -14,2 C
01.02.2012 08:12 -10,7 C 64 % 1038,0 hPa 0,0 l/m 5,0 km/h (1 Bft) O 90 -16,2 C -13,7 C
01.02.2012 08:17 -10,7 C 64 % 1038,1 hPa 0,0 l/m 3,6 km/h (1 Bft) O 90 -16,2 C -10,7 C
01.02.2012 08:22 -10,7 C 64 % 1038,0 hPa 0,0 l/m 6,8 km/h (2 Bft) O 90 -16,2 C -14,7 C
01.02.2012 08:27 -10,7 C 64 % 1038,1 hPa 0,0 l/m 2,5 km/h (1 Bft) O 90 -16,2 C -10,7 C
01.02.2012 08:32 -10,7 C 64 % 1038,1 hPa 0,0 l/m 6,5 km/h (2 Bft) O 90 -16,2 C -14,6 C
01.02.2012 08:37 -10,7 C 64 % 1038,2 hPa 0,0 l/m 9,7 km/h (2 Bft) O 90 -16,2 C -16,0 C
01.02.2012 08:42 -10,6 C 63 % 1038,2 hPa 0,0 l/m 9,7 km/h (2 Bft) O 90 -16,2 C -15,9 C
01.02.2012 08:47 -10,6 C 63 % 1038,3 hPa 0,0 l/m 9,4 km/h (2 Bft) O 90 -16,2 C -15,8 C
01.02.2012 08:52 -10,5 C 63 % 1038,3 hPa 0,0 l/m 5,0 km/h (1 Bft) O 90 -16,1 C -13,5 C
01.02.2012 08:57 -10,4 C 63 % 1038,3 hPa 0,0 l/m 8,3 km/h (2 Bft) O 90 -16,1 C -15,1 C
01.02.2012 09:02 -10,4 C 63 % 1038,3 hPa 0,0 l/m 5,8 km/h (2 Bft) O 90 -16,1 C -13,9 C
01.02.2012 09:07 -10,3 C 63 % 1038,2 hPa 0,0 l/m 4,3 km/h (1 Bft) O 90 -16,0 C -10,3 C
01.02.2012 09:12 -10,2 C 62 % 1038,4 hPa 0,0 l/m 7,6 km/h (2 Bft) O 90 -16,1 C -14,5 C
01.02.2012 09:17 -10,2 C 62 % 1038,3 hPa 0,0 l/m 3,2 km/h (1 Bft) O 90 -16,1 C -10,2 C
01.02.2012 09:22 -10,1 C 62 % 1038,1 hPa 0,0 l/m 5,0 km/h (1 Bft) O 90 -16,0 C -13,0 C
01.02.2012 09:27 -10,1 C 62 % 1038,2 hPa 0,0 l/m 11,2 km/h (2 Bft) O 90 -16,0 C -15,8 C
01.02.2012 09:32 -9,9 C 62 % 1038,3 hPa 0,0 l/m 12,6 km/h (3 Bft) O 90 -15,8 C -16,0 C
01.02.2012 09:37 -9,9 C 62 % 1038,2 hPa 0,0 l/m 2,2 km/h (1 Bft) O 90 -15,8 C -9,9 C
01.02.2012 09:42 -9,8 C 61 % 1038,3 hPa 0,0 l/m 7,2 km/h (2 Bft) O 90 -15,9 C -13,9 C
01.02.2012 09:47 -9,8 C 61 % 1038,3 hPa 0,0 l/m 6,8 km/h (2 Bft) O 90 -15,9 C -13,7 C
01.02.2012 09:52 -9,7 C 61 % 1038,3 hPa 0,0 l/m 9,4 km/h (2 Bft) O 90 -15,8 C -14,7 C
01.02.2012 09:57 -9,7 C 61 % 1038,5 hPa 0,0 l/m 12,6 km/h (3 Bft) O 90 -15,8 C -15,7 C
01.02.2012 10:02 -9,6 C 61 % 1038,4 hPa 0,0 l/m 18,0 km/h (3 Bft) O 90 -15,7 C -16,9 C
01.02.2012 10:07 -9,5 C 61 % 1038,4 hPa 0,0 l/m 5,8 km/h (2 Bft) O 90 -15,6 C -12,8 C
01.02.2012 10:12 -9,4 C 60 % 1038,3 hPa 0,0 l/m 4,0 km/h (1 Bft) O 90 -15,7 C -9,4 C
01.02.2012 10:17 -9,3 C 61 % 1038,4 hPa 0,0 l/m 5,0 km/h (1 Bft) O 90 -15,4 C -12,1 C
01.02.2012 10:22 -9,2 C 61 % 1038,4 hPa 0,0 l/m 7,2 km/h (2 Bft) O 90 -15,3 C -13,2 C
01.02.2012 10:27 -9,1 C 61 % 1038,4 hPa 0,0 l/m 6,1 km/h (2 Bft) O 90 -15,2 C -12,5 C
01.02.2012 10:32 -9,0 C 61 % 1038,4 hPa 0,0 l/m 8,3 km/h (2 Bft) O 90 -15,1 C -13,4 C
01.02.2012 10:37 -8,8 C 60 % 1038,4 hPa 0,0 l/m 9,7 km/h (2 Bft) O 90 -15,1 C -13,7 C
01.02.2012 10:42 -8,7 C 60 % 1038,4 hPa 0,0 l/m 9,0 km/h (2 Bft) O 90 -15,0 C -13,3 C
01.02.2012 10:47 -8,7 C 59 % 1038,4 hPa 0,0 l/m 13,0 km/h (3 Bft) O 90 -15,2 C -14,6 C
01.02.2012 10:52 -8,6 C 59 % 1038,4 hPa 0,0 l/m 7,9 km/h (2 Bft) O 90 -15,1 C -12,8 C
01.02.2012 10:57 -8,5 C 59 % 1038,4 hPa 0,0 l/m 11,2 km/h (2 Bft) O 90 -15,0 C -13,9 C
01.02.2012 11:02 -8,4 C 58 % 1038,5 hPa 0,0 l/m 11,2 km/h (2 Bft) O 90 -15,2 C -13,7 C
01.02.2012 11:07 -8,4 C 58 % 1038,4 hPa 0,0 l/m 16,6 km/h (3 Bft) O 90 -15,2 C -15,1 C
01.02.2012 11:12 -8,3 C 58 % 1038,5 hPa 0,0 l/m 4,7 km/h (1 Bft) O 90 -15,1 C -10,8 C
01.02.2012 11:17 -8,2 C 58 % 1038,4 hPa 0,0 l/m 6,8 km/h (2 Bft) O 90 -15,0 C -11,8 C
01.02.2012 11:22 -8,2 C 58 % 1038,4 hPa 0,0 l/m 13,3 km/h (3 Bft) O 90 -15,0 C -14,1 C
01.02.2012 11:27 -8,1 C 58 % 1038,4 hPa 0,0 l/m 15,1 km/h (3 Bft) O 90 -14,9 C -14,4 C
01.02.2012 11:32 -8,1 C 57 % 1038,3 hPa 0,0 l/m 10,4 km/h (2 Bft) O 90 -15,1 C -13,1 C
01.02.2012 11:37 -7,9 C 57 % 1038,3 hPa 0,0 l/m 7,6 km/h (2 Bft) O 90 -14,9 C -11,9 C
01.02.2012 11:42 -7,8 C 57 % 1038,4 hPa 0,0 l/m 17,3 km/h (3 Bft) O 90 -14,8 C -14,5 C
01.02.2012 11:47 -7,7 C 56 % 1038,4 hPa 0,0 l/m 11,5 km/h (2 Bft) O 90 -14,9 C -13,0 C
01.02.2012 11:52 -7,6 C 57 % 1038,4 hPa 0,0 l/m 8,3 km/h (2 Bft) O 90 -14,6 C -11,8 C
01.02.2012 11:57 -7,4 C 56 % 1038,3 hPa 0,0 l/m 6,5 km/h (2 Bft) O 90 -14,6 C -10,8 C
01.02.2012 12:02 -7,2 C 55 % 1038,2 hPa 0,0 l/m 13,3 km/h (3 Bft) O 90 -14,7 C -12,9 C
01.02.2012 12:07 -7,1 C 55 % 1038,3 hPa 0,0 l/m 8,6 km/h (2 Bft) O 90 -14,6 C -11,3 C
01.02.2012 12:12 -7,1 C 54 % 1038,3 hPa 0,0 l/m 8,6 km/h (2 Bft) O 90 -14,8 C -11,3 C
01.02.2012 12:17 -7,0 C 54 % 1038,3 hPa 0,0 l/m 6,8 km/h (2 Bft) O 90 -14,7 C -10,5 C
01.02.2012 12:22 -6,9 C 54 % 1038,3 hPa 0,0 l/m 11,9 km/h (2 Bft) O 90 -14,6 C -12,1 C
01.02.2012 12:27 -6,9 C 53 % 1038,1 hPa 0,0 l/m 8,6 km/h (2 Bft) O 90 -14,8 C -11,1 C
01.02.2012 12:32 -6,7 C 53 % 1038,1 hPa 0,0 l/m 5,0 km/h (1 Bft) O 90 -14,6 C -9,2 C
01.02.2012 12:37 -6,6 C 53 % 1038,1 hPa 0,0 l/m 11,9 km/h (2 Bft) O 90 -14,6 C -11,8 C
01.02.2012 12:42 -6,5 C 53 % 1038,1 hPa 0,0 l/m 6,8 km/h (2 Bft) O 90 -14,5 C -9,9 C
01.02.2012 12:47 -6,4 C 54 % 1038,1 hPa 0,0 l/m 7,2 km/h (2 Bft) O 90 -14,1 C -9,9 C
01.02.2012 12:52 -6,3 C 54 % 1038,2 hPa 0,0 l/m 15,5 km/h (3 Bft) O 90 -14,0 C -12,3 C
01.02.2012 12:57 -6,2 C 53 % 1038,1 hPa 0,0 l/m 7,2 km/h (2 Bft) O 90 -14,2 C -9,7 C
01.02.2012 13:02 -6,1 C 53 % 1038,2 hPa 0,0 l/m 14,0 km/h (3 Bft) O 90 -14,1 C -11,7 C
01.02.2012 13:07 -6,1 C 53 % 1038,0 hPa 0,0 l/m 15,5 km/h (3 Bft) O 90 -14,1 C -12,0 C
01.02.2012 13:12 -6,0 C 53 % 1038,1 hPa 0,0 l/m 14,8 km/h (3 Bft) O 90 -14,0 C -11,8 C
01.02.2012 13:17 -5,9 C 53 % 1038,1 hPa 0,0 l/m 12,2 km/h (2 Bft) O 90 -13,9 C -11,0 C
01.02.2012 13:22 -5,8 C 53 % 1038,1 hPa 0,0 l/m 16,2 km/h (3 Bft) O 90 -13,8 C -11,8 C
01.02.2012 13:27 -5,7 C 53 % 1037,9 hPa 0,0 l/m 9,0 km/h (2 Bft) O 90 -13,7 C -9,8 C
01.02.2012 13:32 -5,6 C 53 % 1037,9 hPa 0,0 l/m 9,7 km/h (2 Bft) O 90 -13,6 C -9,9 C
01.02.2012 13:37 -5,6 C 52 % 1037,8 hPa 0,0 l/m 14,4 km/h (3 Bft) O 90 -13,9 C -11,2 C
01.02.2012 13:42 -5,6 C 52 % 1038,1 hPa 0,0 l/m 8,6 km/h (2 Bft) O 90 -13,9 C -9,5 C
01.02.2012 13:47 -5,4 C 52 % 1038,1 hPa 0,0 l/m 8,6 km/h (2 Bft) O 90 -13,7 C -9,3 C
01.02.2012 13:52 -5,4 C 52 % 1037,8 hPa 0,0 l/m 11,2 km/h (2 Bft) O 90 -13,7 C -10,1 C
01.02.2012 13:57 -5,4 C 52 % 1037,9 hPa 0,0 l/m 7,2 km/h (2 Bft) O 90 -13,7 C -8,8 C
01.02.2012 14:02 -5,2 C 52 % 1037,8 hPa 0,0 l/m 6,1 km/h (2 Bft) O 90 -13,5 C -8,1 C
01.02.2012 14:07 -5,1 C 52 % 1037,9 hPa 0,0 l/m 9,4 km/h (2 Bft) O 90 -13,4 C -9,2 C
01.02.2012 14:12 -5,1 C 51 % 1037,7 hPa 0,0 l/m 8,3 km/h (2 Bft) O 90 -13,6 C -8,8 C
01.02.2012 14:17 -5,1 C 52 % 1037,7 hPa 0,0 l/m 6,1 km/h (2 Bft) O 90 -13,4 C -7,9 C
01.02.2012 14:22 -5,1 C 51 % 1037,8 hPa 0,0 l/m 9,4 km/h (2 Bft) O 90 -13,6 C -9,2 C
01.02.2012 14:27 -5,1 C 52 % 1037,7 hPa 0,0 l/m 9,7 km/h (2 Bft) O 90 -13,4 C -9,3 C
01.02.2012 14:32 -5,1 C 52 % 1037,8 hPa 0,0 l/m 11,2 km/h (2 Bft) O 90 -13,4 C -9,8 C
01.02.2012 14:37 -5,0 C 52 % 1037,5 hPa 0,0 l/m 9,7 km/h (2 Bft) O 90 -13,3 C -9,2 C
01.02.2012 14:42 -5,0 C 51 % 1037,6 hPa 0,0 l/m 7,9 km/h (2 Bft) O 90 -13,5 C -8,6 C
01.02.2012 14:47 -5,0 C 51 % 1037,8 hPa 0,0 l/m 5,0 km/h (1 Bft) O 90 -13,5 C -7,3 C
01.02.2012 14:52 -4,9 C 51 % 1037,7 hPa 0,0 l/m 6,5 km/h (2 Bft) O 90 -13,4 C -7,9 C
01.02.2012 14:57 -4,9 C 51 % 1037,7 hPa 0,0 l/m 8,3 km/h (2 Bft) O 90 -13,4 C -8,6 C
01.02.2012 15:02 -4,9 C 50 % 1037,6 hPa 0,0 l/m 6,1 km/h (2 Bft) O 90 -13,7 C -7,7 C
01.02.2012 15:07 -4,9 C 50 % 1037,6 hPa 0,0 l/m 5,8 km/h (2 Bft) O 90 -13,7 C -7,6 C
01.02.2012 15:12 -5,0 C 50 % 1037,5 hPa 0,0 l/m 6,8 km/h (2 Bft) O 90 -13,8 C -8,1 C
01.02.2012 15:17 -5,0 C 50 % 1037,5 hPa 0,0 l/m 7,9 km/h (2 Bft) O 90 -13,8 C -8,6 C
01.02.2012 15:22 -5,1 C 51 % 1037,5 hPa 0,0 l/m 6,5 km/h (2 Bft) O 90 -13,6 C -8,1 C
01.02.2012 15:27 -5,0 C 51 % 1037,6 hPa 0,0 l/m 9,0 km/h (2 Bft) O 90 -13,5 C -9,0 C
01.02.2012 15:32 -5,1 C 51 % 1037,7 hPa 0,0 l/m 6,1 km/h (2 Bft) O 90 -13,6 C -7,9 C
01.02.2012 15:37 -5,1 C 51 % 1037,7 hPa 0,5 l/m 8,6 km/h (2 Bft) O 90 -13,6 C -8,9 C
01.02.2012 15:42 -5,2 C 51 % 1037,7 hPa 0,0 l/m 5,0 km/h (1 Bft) O 90 -13,7 C -7,5 C
01.02.2012 15:47 -5,3 C 51 % 1037,8 hPa 0,0 l/m 4,3 km/h (1 Bft) O 90 -13,8 C -5,3 C
01.02.2012 15:52 -5,3 C 51 % 1037,8 hPa 0,0 l/m 2,9 km/h (1 Bft) O 90 -13,8 C -5,3 C
01.02.2012 15:57 -5,4 C 51 % 1037,7 hPa 0,0 l/m 4,0 km/h (1 Bft) O 90 -13,9 C -5,4 C
01.02.2012 16:02 -5,6 C 51 % 1037,6 hPa 0,0 l/m 4,7 km/h (1 Bft) O 90 -14,1 C -7,8 C
01.02.2012 16:07 -5,6 C 51 % 1037,7 hPa 0,0 l/m 7,2 km/h (2 Bft) O 90 -14,1 C -9,0 C
01.02.2012 16:12 -5,7 C 50 % 1037,5 hPa 0,0 l/m 10,8 km/h (2 Bft) O 90 -14,4 C -10,4 C
01.02.2012 16:17 -5,8 C 49 % 1037,7 hPa 0,0 l/m 8,3 km/h (2 Bft) O 90 -14,8 C -9,7 C
01.02.2012 16:22 -5,9 C 49 % 1037,7 hPa 0,0 l/m 5,4 km/h (1 Bft) O 90 -14,9 C -8,5 C
01.02.2012 16:27 -6,0 C 49 % 1037,6 hPa 0,0 l/m 5,8 km/h (2 Bft) O 90 -14,9 C -8,8 C
01.02.2012 16:32 -6,1 C 49 % 1037,5 hPa 0,0 l/m 5,8 km/h (2 Bft) O 90 -15,0 C -8,9 C
01.02.2012 16:37 -6,2 C 49 % 1037,6 hPa 0,0 l/m 6,1 km/h (2 Bft) O 90 -15,1 C -9,2 C
01.02.2012 16:42 -6,2 C 49 % 1037,7 hPa 0,0 l/m 7,2 km/h (2 Bft) O 90 -15,1 C -9,7 C
01.02.2012 16:47 -6,2 C 49 % 1037,8 hPa 0,0 l/m 10,1 km/h (2 Bft) O 90 -15,1 C -10,8 C
01.02.2012 16:52 -6,4 C 49 % 1037,8 hPa 0,0 l/m 5,0 km/h (1 Bft) O 90 -15,3 C -8,8 C
01.02.2012 16:57 -6,4 C 49 % 1037,9 hPa 0,0 l/m 2,5 km/h (1 Bft) O 90 -15,3 C -6,4 C
01.02.2012 17:02 -6,6 C 50 % 1038,0 hPa 0,0 l/m 0,0 km/h (0 Bft) O 90 -15,3 C -6,6 C
01.02.2012 17:07 -6,7 C 50 % 1038,0 hPa 0,0 l/m 2,5 km/h (1 Bft) O 90 -15,3 C -6,7 C
01.02.2012 17:12 -6,8 C 50 % 1038,1 hPa 0,0 l/m 5,8 km/h (2 Bft) O 90 -15,4 C -9,7 C
01.02.2012 17:17 -6,9 C 50 % 1038,2 hPa 0,0 l/m 3,6 km/h (1 Bft) O 90 -15,5 C -6,9 C
01.02.2012 17:22 -6,9 C 50 % 1038,0 hPa 0,0 l/m 4,0 km/h (1 Bft) O 90 -15,5 C -6,9 C
01.02.2012 17:27 -7,1 C 51 % 1038,2 hPa 0,0 l/m 4,7 km/h (1 Bft) O 90 -15,5 C -9,5 C
01.02.2012 17:32 -7,1 C 51 % 1038,1 hPa 0,0 l/m 7,2 km/h (2 Bft) O 90 -15,5 C -10,7 C
01.02.2012 17:37 -7,2 C 51 % 1038,2 hPa 0,0 l/m 2,9 km/h (1 Bft) O 90 -15,6 C -7,2 C
01.02.2012 17:42 -7,2 C 51 % 1038,3 hPa 0,0 l/m 4,7 km/h (1 Bft) O 90 -15,6 C -9,6 C
01.02.2012 17:47 -7,4 C 51 % 1038,2 hPa 0,0 l/m 2,9 km/h (1 Bft) O 90 -15,8 C -7,4 C
01.02.2012 17:52 -7,5 C 51 % 1038,3 hPa 0,0 l/m 9,0 km/h (2 Bft) O 90 -15,9 C -11,9 C
01.02.2012 17:57 -7,6 C 52 % 1038,2 hPa 0,0 l/m 4,7 km/h (1 Bft) O 90 -15,7 C -10,0 C
01.02.2012 18:02 -7,6 C 52 % 1038,3 hPa 0,0 l/m 4,7 km/h (1 Bft) O 90 -15,7 C -10,0 C
01.02.2012 18:07 -7,7 C 52 % 1038,4 hPa 0,0 l/m 8,3 km/h (2 Bft) O 90 -15,8 C -11,9 C
01.02.2012 18:12 -7,8 C 52 % 1038,4 hPa 0,0 l/m 4,3 km/h (1 Bft) O 90 -15,9 C -7,8 C
01.02.2012 18:17 -7,8 C 53 % 1038,4 hPa 0,0 l/m 5,8 km/h (2 Bft) O 90 -15,7 C -10,9 C
01.02.2012 18:22 -7,9 C 53 % 1038,6 hPa 0,0 l/m 6,1 km/h (2 Bft) O 90 -15,8 C -11,2 C
01.02.2012 18:27 -7,9 C 53 % 1038,4 hPa 0,0 l/m 5,0 km/h (1 Bft) O 90 -15,8 C -10,6 C
01.02.2012 18:32 -8,1 C 53 % 1038,5 hPa 0,0 l/m 2,2 km/h (1 Bft) O 90 -16,0 C -8,1 C
01.02.2012 18:37 -8,1 C 54 % 1038,4 hPa 0,0 l/m 5,0 km/h (1 Bft) O 90 -15,7 C -10,8 C
01.02.2012 18:42 -8,1 C 54 % 1038,6 hPa 0,0 l/m 3,2 km/h (1 Bft) O 90 -15,7 C -8,1 C
01.02.2012 18:47 -8,2 C 54 % 1038,6 hPa 0,0 l/m 4,0 km/h (1 Bft) O 90 -15,8 C -8,2 C
01.02.2012 18:52 -8,2 C 54 % 1038,6 hPa 0,0 l/m 7,6 km/h (2 Bft) O 90 -15,8 C -12,2 C
01.02.2012 18:57 -8,2 C 54 % 1038,5 hPa 0,0 l/m 10,1 km/h (2 Bft) O 90 -15,8 C -13,1 C
01.02.2012 19:02 -8,2 C 54 % 1038,4 hPa 0,0 l/m 7,2 km/h (2 Bft) O 90 -15,8 C -12,0 C
01.02.2012 19:07 -8,2 C 54 % 1038,6 hPa 0,0 l/m 7,6 km/h (2 Bft) O 90 -15,8 C -12,2 C
01.02.2012 19:12 -8,2 C 54 % 1038,7 hPa 0,0 l/m 4,7 km/h (1 Bft) O 90 -15,8 C -10,7 C
01.02.2012 19:17 -8,2 C 54 % 1038,6 hPa 0,0 l/m 7,9 km/h (2 Bft) O 90 -15,8 C -12,3 C
01.02.2012 19:22 -8,2 C 54 % 1038,7 hPa 0,0 l/m 9,4 km/h (2 Bft) O 90 -15,8 C -12,9 C
01.02.2012 19:27 -8,2 C 54 % 1038,8 hPa 0,0 l/m 4,7 km/h (1 Bft) O 90 -15,8 C -10,7 C
01.02.2012 19:32 -8,3 C 54 % 1038,8 hPa 0,0 l/m 4,0 km/h (1 Bft) O 90 -15,9 C -8,3 C
01.02.2012 19:37 -8,4 C 54 % 1038,7 hPa 0,0 l/m 6,1 km/h (2 Bft) O 90 -16,0 C -11,7 C
01.02.2012 19:42 -8,4 C 55 % 1038,6 hPa 0,0 l/m 9,4 km/h (2 Bft) O 90 -15,8 C -13,1 C
01.02.2012 19:47 -8,4 C 55 % 1038,8 hPa 0,0 l/m 3,6 km/h (1 Bft) O 90 -15,8 C -8,4 C
01.02.2012 19:52 -8,5 C 55 % 1038,9 hPa 0,0 l/m 5,0 km/h (1 Bft) O 90 -15,9 C -11,2 C
01.02.2012 19:57 -8,6 C 55 % 1039,0 hPa 0,0 l/m 4,0 km/h (1 Bft) O 90 -16,0 C -8,6 C
01.02.2012 20:02 -8,6 C 55 % 1038,9 hPa 0,0 l/m 6,8 km/h (2 Bft) O 90 -16,0 C -12,3 C
01.02.2012 20:07 -8,7 C 56 % 1038,9 hPa 0,0 l/m 12,6 km/h (3 Bft) O 90 -15,9 C -14,5 C
01.02.2012 20:12 -8,7 C 56 % 1038,9 hPa 0,0 l/m 7,2 km/h (2 Bft) O 90 -15,9 C -12,6 C
01.02.2012 20:17 -8,7 C 56 % 1038,9 hPa 0,0 l/m 5,0 km/h (1 Bft) O 90 -15,9 C -11,5 C
01.02.2012 20:22 -8,7 C 56 % 1039,0 hPa 0,0 l/m 7,2 km/h (2 Bft) O 90 -15,9 C -12,6 C
01.02.2012 20:27 -8,8 C 56 % 1039,0 hPa 0,0 l/m 8,6 km/h (2 Bft) O 90 -15,9 C -13,3 C
01.02.2012 20:32 -8,8 C 56 % 1039,1 hPa 0,0 l/m 7,6 km/h (2 Bft) O 90 -15,9 C -12,9 C
01.02.2012 20:37 -8,9 C 56 % 1039,0 hPa 0,0 l/m 5,4 km/h (1 Bft) O 90 -16,0 C -11,9 C
01.02.2012 20:42 -8,9 C 57 % 1039,1 hPa 0,0 l/m 6,5 km/h (2 Bft) O 90 -15,8 C -12,5 C
01.02.2012 20:47 -8,9 C 57 % 1039,3 hPa 0,0 l/m 4,3 km/h (1 Bft) O 90 -15,8 C -8,9 C
01.02.2012 20:52 -8,9 C 57 % 1039,1 hPa 0,0 l/m 4,0 km/h (1 Bft) O 90 -15,8 C -8,9 C
01.02.2012 20:57 -9,0 C 57 % 1039,1 hPa 0,0 l/m 7,9 km/h (2 Bft) O 90 -15,9 C -13,3 C
01.02.2012 21:02 -9,1 C 57 % 1039,0 hPa 0,0 l/m 5,8 km/h (2 Bft) O 90 -16,0 C -12,4 C
01.02.2012 21:07 -9,1 C 57 % 1039,2 hPa 0,0 l/m 11,5 km/h (2 Bft) O 90 -16,0 C -14,7 C
01.02.2012 21:12 -9,1 C 57 % 1039,1 hPa 0,0 l/m 8,3 km/h (2 Bft) O 90 -16,0 C -13,5 C
01.02.2012 21:17 -9,1 C 58 % 1039,2 hPa 0,0 l/m 6,5 km/h (2 Bft) O 90 -15,8 C -12,7 C
01.02.2012 21:22 -9,2 C 58 % 1039,1 hPa 0,0 l/m 8,3 km/h (2 Bft) O 90 -15,9 C -13,7 C
01.02.2012 21:27 -9,3 C 58 % 1039,2 hPa 0,0 l/m 4,0 km/h (1 Bft) O 90 -16,0 C -9,3 C
01.02.2012 21:32 -9,3 C 58 % 1039,4 hPa 0,0 l/m 14,4 km/h (3 Bft) O 90 -16,0 C -15,7 C
01.02.2012 21:37 -9,4 C 59 % 1039,1 hPa 0,0 l/m 7,9 km/h (2 Bft) O 90 -15,9 C -13,7 C
01.02.2012 21:42 -9,4 C 59 % 1039,1 hPa 0,0 l/m 10,1 km/h (2 Bft) O 90 -15,9 C -14,6 C
01.02.2012 21:47 -9,4 C 59 % 1039,1 hPa 0,0 l/m 6,5 km/h (2 Bft) O 90 -15,9 C -13,1 C
01.02.2012 21:52 -9,5 C 59 % 1039,1 hPa 0,0 l/m 8,6 km/h (2 Bft) O 90 -16,0 C -14,1 C
01.02.2012 21:57 -9,5 C 59 % 1039,0 hPa 0,0 l/m 8,3 km/h (2 Bft) O 90 -16,0 C -14,0 C
01.02.2012 22:02 -9,6 C 60 % 1039,1 hPa 0,0 l/m 18,0 km/h (3 Bft) O 90 -15,9 C -16,9 C
01.02.2012 22:07 -9,6 C 60 % 1039,1 hPa 0,0 l/m 9,4 km/h (2 Bft) O 90 -15,9 C -14,6 C
01.02.2012 22:12 -9,6 C 60 % 1039,1 hPa 0,0 l/m 7,2 km/h (2 Bft) O 90 -15,9 C -13,7 C
01.02.2012 22:17 -9,7 C 60 % 1039,2 hPa 0,0 l/m 9,4 km/h (2 Bft) O 90 -16,0 C -14,7 C
01.02.2012 22:22 -9,7 C 61 % 1039,0 hPa 0,0 l/m 3,6 km/h (1 Bft) O 90 -15,8 C -9,7 C
01.02.2012 22:27 -9,8 C 61 % 1039,0 hPa 0,0 l/m 4,7 km/h (1 Bft) O 90 -15,9 C -12,5 C
01.02.2012 22:32 -9,9 C 61 % 1038,9 hPa 0,0 l/m 9,7 km/h (2 Bft) O 90 -16,0 C -15,0 C
01.02.2012 22:37 -9,9 C 62 % 1038,9 hPa 0,0 l/m 8,6 km/h (2 Bft) O 90 -15,8 C -14,6 C
01.02.2012 22:42 -9,9 C 62 % 1039,0 hPa 0,0 l/m 8,3 km/h (2 Bft) O 90 -15,8 C -14,5 C
01.02.2012 22:47 -9,9 C 62 % 1039,1 hPa 0,0 l/m 4,0 km/h (1 Bft) O 90 -15,8 C -9,9 C
01.02.2012 22:52 -9,9 C 62 % 1039,2 hPa 0,0 l/m 11,9 km/h (2 Bft) O 90 -15,8 C -15,8 C
01.02.2012 22:57 -9,9 C 62 % 1039,2 hPa 0,0 l/m 14,0 km/h (3 Bft) O 90 -15,8 C -16,4 C
01.02.2012 23:02 -9,9 C 63 % 1039,0 hPa 0,0 l/m 13,0 km/h (3 Bft) O 90 -15,6 C -16,1 C
01.02.2012 23:07 -10,0 C 63 % 1039,0 hPa 0,0 l/m 10,8 km/h (2 Bft) O 90 -15,7 C -15,5 C
01.02.2012 23:12 -10,1 C 64 % 1039,0 hPa 0,0 l/m 5,4 km/h (1 Bft) O 90 -15,6 C -13,3 C
01.02.2012 23:17 -10,1 C 64 % 1039,1 hPa 0,0 l/m 6,1 km/h (2 Bft) O 90 -15,6 C -13,7 C
01.02.2012 23:22 -10,1 C 64 % 1039,1 hPa 0,0 l/m 2,9 km/h (1 Bft) O 90 -15,6 C -10,1 C
01.02.2012 23:27 -10,2 C 64 % 1039,0 hPa 0,0 l/m 9,4 km/h (2 Bft) O 90 -15,7 C -15,3 C
01.02.2012 23:32 -10,2 C 64 % 1039,0 hPa 0,0 l/m 9,0 km/h (2 Bft) O 90 -15,7 C -15,1 C
01.02.2012 23:37 -10,2 C 65 % 1039,1 hPa 0,0 l/m 13,7 km/h (3 Bft) O 90 -15,5 C -16,7 C
01.02.2012 23:42 -10,2 C 65 % 1039,1 hPa 0,0 l/m 3,2 km/h (1 Bft) O 90 -15,5 C -10,2 C
01.02.2012 23:47 -10,2 C 65 % 1039,1 hPa 0,0 l/m 4,0 km/h (1 Bft) O 90 -15,5 C -10,2 C
01.02.2012 23:52 -10,2 C 65 % 1039,1 hPa 0,0 l/m 5,8 km/h (2 Bft) O 90 -15,5 C -13,6 C
01.02.2012 23:57 -10,4 C 66 % 1039,3 hPa 0,0 l/m 7,2 km/h (2 Bft) O 90 -15,5 C -14,6 C
_ Min-Zeit 06:57 16:17 00:02 - 06:22 - - 08:42 10:02
Minimum _ -10,7 C 49 % 1036,6 hPa - 0,0 km/h (0 Bft) - - -16,2 C -16,9 C
_ Max-Zeit 14:52 01:47 21:32 15:37 00:32 - - 00:02 15:47
Maximum _ -4,9 C 69 % 1039,4 hPa 0,5 l/m 18,0 km/h
O (3 Bft)
- - -12,7 C -5,3 C
Durchschnitt _ -8,5 C 60 % 1038,0 hPa #0,5 l/m 7,5 km/h (2 Bft) O - -14,9 C -11,9 C
(c) by David Heller